Reklama

Seznam meteostanic a jejich METAR

Vyhledat místa podle abecedy:
A B C D E F G H I J K L M N O P Q R S T U V W X Y Z

Filtrovat:

ID stanice:
a/nebo
Název místa (fulltext):
 
Místo (ID)Naposledy načteno 
Odense (EKOD) 15.12.2019 13:50 UTC Zobrazit METAR
EKOD 151350Z 22028G44KT 7000 -SHRA FEW017 BKN026 BKN032 05/04 Q0984
Odesa (UKOO) 01.02.2018 08:00 UTC Zobrazit METAR
UKOO 010800Z CAVOK 07/04 Q1018 R16/190056 NOSIG
Osijek (LDOS) 15.12.2019 21:00 UTC Zobrazit METAR
LDOS 152100Z 17005KT CAVOK 04/03 Q1018
Oslo (ENGM) 15.12.2019 20:50 UTC Zobrazit METAR
ENGM 152050Z 00000KT 9000 VCFG FEW001 BKN018 00/00 Q0987 TEMPO 0800 FZFG OVC002
Ostend (EBOS) 15.12.2019 20:50 UTC Zobrazit METAR
EBOS 152050Z 18008KT 150V210 9999 FEW025 05/02 Q1004 NOSIG
Ostrava (LKMT) 15.12.2019 21:00 UTC Zobrazit METAR
LKMT 152100Z 22011KT 9999 OVC037 07/03 Q1013 NOSIG
Ottawa (CYOW) 15.12.2019 21:00 UTC Zobrazit METAR
CYOW 152100Z 28016G28KT 15SM DRSN BKN028 M08/M12 A2987 RMK CU5 PRESRR SLP124
Ouagadougou (DFFD) 15.12.2019 21:00 UTC Zobrazit METAR
DFFD 152100Z 04004KT 8000 NSC 24/M01 Q1013 NOSIG
Oulu (EFOU) 15.12.2019 20:50 UTC Zobrazit METAR
EFOU 152050Z AUTO 11008KT 4100 -SN OVC004 00/M00 Q0996
Reklama

Počasí na Váš email

Emaily jsou bez reklamy a bez spamu



Odhlásit newsletter

Reklama


Lunární kalendář

  • 19.12.
  • 26.12.
  • 03.01.
  • 10.01.



Reklama


Reklama
Povinné ručení
Reklama



Reklama